Latest  Newer  Older  Last 2 hours slideshow  Last 24 hours slideshow  Refresh every 5 minutes 
Current image  Latest image  Rain/snow radar  Cloud coverage sat images 

All time is UTC (add 2 hours to UTC in wintertime, 3 hours to UTC in DST for Latvia local time)

2020/04/01 22:50 EVRA 012250Z 20007KT 9999 -RA BKN019 OVC023 04/02 Q1001 NOSIG
2020/04/01 22:50 EVLA 012250Z AUTO 24012KT 9999 FEW008/// OVC046/// 05/05 Q1001
2020/04/01 22:50 EVVA 012250Z AUTO 22010KT CAVOK 05/04 Q0999
2020/04/01 22:50 EYKA 012250Z AUTO 21007KT 160V250 9999 OVC028/// 03/M01 Q1006
2020/04/01 22:50 EYPA 012250Z AUTO 25008KT 200V290 9999 FEW011/// BKN034/// 05/04 Q1002
2020/04/01 22:20 EYSA 012220Z AUTO 21011KT 8000NDV SHRA BKN006 BKN009 OVC016 03/02 Q1003
2020/04/01 22:50 EYVI 012250Z 21008KT 9999 OVC039 02/M01 Q1006 NOSIG

2020/04/01 22:50 EEKE 012250Z AUTO 24006KT 210V320 9999NDV -DZ FEW015 SCT040 04/04 Q0998

2020/04/01 22:50 EETN 012250Z 20006KT CAVOK M00/M03 Q0996 R08/00//95
2020/04/01 22:50 EETU 012250Z AUTO 22007KT 9999 NCD 01/M02 Q0999
   RIGA AIRPORT     EVRA               56 55N  023 58E   10   X     T          6 LV
   LIEPAJA INTL     EVLA        26406  56 31N  021 06E    4   X                8 LV
   VENTPILS         EVVA               57 21N  021 33E    6   X                8 LV
   KAUNAS           EYKA               54 54N  023 55E   77   X     T          6 LT
   PALANGA INTL     EYPA               55 55N  021 03E   10   X                6 LT
   SIAULIAI INTL    EYSA               55 54N  023 24E  135   X     T          6 LT
   VILNIUS INTL     EYVI        26730  54 38N  025 17E  197   X     T          6 LT
   KARDLA           EEKA        26116  58 59N  022 50E    4   X                8 EE
   KURESSAARE       EEKE               58 14N  022 31E    4   X                8 EE
   PARNU            EEPU               58 25N  024 28E   14   X                8 EE
   TALLINN          EETN        26038  59 24N  024 49E   40   X     T          8 EE
   TARTU            EETU               58 19N  026 41E   67   X                8 EE